CheckWX is a tool to help pilots better visualize weather data.  It is not intended as a substitute for an official pre-flight weather briefing.

22:31:16 UTC

EGAA TAF
Belfast International Airport
Belfast, United Kingdom
TAF AMD EGAA 191907Z 1919/2018 35008KT 9999 FEW030 PROB30 TEMPO 1920/1924 7000 SHRA

Oct-19@
19:00 UTC

Oct-19 @ 19:00 UTC

Oct-20@
18:00 UTC

Oct-20 @ 18:00 UTC

TAF AMD EGAA 191907Z 1919/2018 35008KT 9999 FEW030
Wind
  • 350° at 8 KTS
Cloud Levels
  • Few at 3,000' AGL

Oct-19@
20:00 UTC

Oct-19 @ 20:00 UTC

Oct-20@
00:00 UTC

Oct-20 @ 00:00 UTC

PROB30 TEMPO 1920/1924 7000 SHRA

Temporary - 30% Likelihood

Temporary - 30% Likelihood during this time.

Conditions
Rain